createdAt,value
2022-09-26T00:07:39.533Z,29.675
2022-09-26T00:22:41.359Z,29.238
2022-09-26T00:37:43.211Z,29.33
2022-09-26T00:52:45.068Z,29.797
2022-09-26T01:07:46.923Z,29.692
2022-09-26T01:22:48.740Z,30.418
2022-09-26T01:37:50.592Z,30.293
2022-09-26T01:52:52.454Z,29.263
2022-09-26T02:07:54.319Z,29.912
2022-09-26T02:22:56.174Z,29.58
2022-09-26T02:37:58.014Z,29.387
2022-09-26T02:52:59.834Z,28.996
2022-09-26T03:08:01.681Z,28.968
2022-09-26T03:23:03.543Z,29.016
2022-09-26T03:38:05.398Z,28.895
2022-09-26T03:53:07.185Z,29.658
2022-09-26T04:08:09.041Z,29.074
2022-09-26T04:23:10.865Z,28.986
2022-09-26T04:38:12.724Z,28.255
2022-09-26T04:53:14.567Z,28.577
2022-09-26T05:08:16.432Z,29.028
2022-09-26T05:23:18.272Z,28.383
2022-09-26T05:38:20.117Z,28.368
2022-09-26T05:53:21.933Z,28.58
2022-09-26T06:08:23.796Z,27.755
2022-09-26T06:23:25.724Z,28.18
2022-09-26T06:38:27.574Z,28.269
2022-09-26T06:53:29.393Z,29.292
2022-09-26T07:08:57.768Z,29.691
2022-09-26T07:24:03.107Z,30.609
2022-09-26T07:39:04.932Z,31.146
2022-09-26T07:54:06.851Z,32.577
2022-09-26T08:09:08.952Z,32.318
2022-09-26T08:24:10.861Z,32.831
2022-09-26T08:39:12.766Z,32.868
2022-09-26T08:54:14.857Z,32.959
2022-09-26T09:09:16.838Z,33.075
2022-09-26T09:24:18.642Z,32.788
2022-09-26T09:39:20.492Z,32.716
2022-09-26T09:54:22.355Z,32.388
2022-09-26T10:09:38.693Z,33.066
2022-09-26T10:24:42.040Z,33.61
2022-09-26T10:39:43.874Z,33.746
2022-09-26T10:54:45.686Z,34.246
2022-09-26T11:09:47.544Z,33.635
2022-09-26T11:24:49.406Z,34.135
2022-09-26T11:39:51.223Z,34.509
2022-09-26T11:54:53.074Z,33.596
2022-09-26T12:09:54.907Z,34.025
2022-09-26T12:24:56.707Z,34.465
2022-09-26T12:39:58.552Z,34.422
2022-09-26T12:55:00.399Z,34.321
2022-09-26T13:10:02.231Z,34.267
2022-09-26T13:25:04.051Z,34.369
2022-09-26T13:40:05.904Z,34.759
2022-09-26T13:55:07.733Z,34.754
2022-09-26T14:10:09.567Z,34.642
2022-09-26T14:25:11.418Z,34.496
2022-09-26T14:40:13.287Z,34.045
2022-09-26T14:55:15.155Z,34.169
2022-09-26T15:10:17.023Z,34.18
2022-09-26T15:25:18.871Z,33.842
2022-09-26T15:40:20.747Z,32.686
2022-09-26T15:55:22.643Z,33.091
2022-09-26T16:10:24.462Z,31.838
2022-09-26T16:25:26.299Z,30.903
2022-09-26T16:40:28.209Z,30.261
2022-09-26T16:55:30.046Z,29.378
2022-09-26T17:10:31.867Z,28.802
2022-09-26T17:25:33.720Z,28.8
2022-09-26T17:40:35.638Z,28.89
2022-09-26T17:55:37.516Z,28.168
2022-09-26T18:10:39.379Z,28.088
2022-09-26T18:25:41.210Z,27.826
2022-09-26T18:40:43.067Z,27.799
2022-09-26T18:55:45.006Z,28.3
2022-09-26T19:10:46.865Z,28.615
2022-09-26T19:25:48.710Z,28.382
2022-09-26T19:40:50.605Z,28.513
2022-09-26T19:55:52.457Z,28.363
2022-09-26T20:10:54.277Z,28.25
2022-09-26T20:25:56.114Z,28.195
2022-09-26T20:40:58.055Z,28.083
2022-09-26T20:55:59.937Z,27.927
2022-09-26T21:11:01.794Z,27.984
2022-09-26T21:26:03.638Z,27.467
2022-09-26T21:41:05.550Z,27.646
2022-09-26T21:56:07.846Z,27.357
2022-09-26T22:11:09.786Z,27.512
2022-09-26T22:26:11.607Z,27.76
2022-09-26T22:41:13.461Z,27.603
2022-09-26T22:56:15.303Z,27.866
2022-09-26T23:11:17.152Z,27.987
2022-09-26T23:26:18.991Z,28.012
2022-09-26T23:41:20.816Z,27.996
2022-09-26T23:56:22.677Z,27.797
